Главная страница
METAR-TAF:

METAR-TAF

Аэропорты :

Парзиван

Закаталы, Азербайджан

широта: 41-33-44N, долгота: 46-40-02E, высота над уровнем моря: 330 м

Текущие метеонаблюдения

Эта сводка был подготовлена 8 минут назад, в 04:00 UTC
Ветер 2 Узел переменных направлений
Температура 4°C
Влажность 70%
Давление 1027 hPa
Видимость 10 км и более
Отдельные облака на высоте 10000 фута

METAR: UBBY 140400Z VRB02KT 9999 SCT100 04/M01 Q1027 R33/////// NOSIG RMK MT OP

Время: 08:08 (04:08 UTC)

Прогноз

Эта сводка был подготовлена 2 часа и 8 минут назад, в 02:00 UTC
Прогноз действительный с 14-го 03 UTC до 14-го 12 UTC
Ветер 2 Узел переменных направлений
Видимость 10 км и более
небольшая облачность на высоте 3000 фута
Отдельные облака на высоте 6000 фута

TAF: UBBY 140200Z 1403/1412 VRB02KT 9999 FEW030 SCT060

Метеонаблюдения и прогнозы для более 4000 аэропортов (сводки METAR и TAF).

Имеющиеся станции представлены на карте желтыми и красными точками.

Чтобы увидеть название станции, наведите на нее мышь.

Затем щелкните, чтобы увидеть метеонаблюдения и метеопрогнозы.

Управление картой: чтобы увеличить масштаб, щелкните зеленые кнопки с черным крестиком; чтобы уменьшить масштаб, щелкните зеленую кнопку с тире; для просмотра соседних карт щелкайте зеленые стрелки.


METAR-TAF: